METAR Data
IDs: Format: Raw Decoded Include TAF

Data at: 1629 UTC 03 Jul 2020

METAR for:KSGH (Springfield Muni, OH, US)
Text:KSGH 031556Z AUTO 36007KT 10SM FEW060 31/17 A3005 RMK AO2 SLP168 T03110172
Temperature: 31.1°C ( 88°F)
Dewpoint: 17.2°C ( 63°F) [RH = 43%]
Pressure (altimeter):30.05 inches Hg (1017.7 mb) [Sea level pressure: 1016.8 mb]
Winds:from the N (360 degrees) at 8 MPH (7 knots; 3.6 m/s)
Visibility:10 or more sm (16+ km)
Ceiling:at least 12,000 feet AGL
Clouds: few clouds at 6000 feet AGL
QC Flag:automated observation with no human augmentation